Time;durP1;ratioP1;P1;durP2;ratioP2;P2;SDS_P1;SDS_P2;PMS_P1;PMS_P2;Temp;Humidity;BMP_temperature;BMP_pressure;BME280_temperature;BME280_humidity;BME280_pressure;Samples;Min_cycle;Max_cycle;Signal;HPM_P1;HPM_P2
2022/04/21 00:00:49;;;;;;;12.60;7.60;;;;;;;-141.50;100.00;63355.56;5069244;28;20052;-76
2022/04/21 00:03:16;;;;;;;12.52;8.15;;;;;;;-141.50;100.00;63355.56;5068156;28;20059;-76
2022/04/21 00:05:42;;;;;;;12.00;8.32;;;;;;;-141.50;100.00;63355.56;5068066;28;20441;-76
2022/04/21 00:08:17;;;;;;;13.40;8.85;;;;;;;-141.50;100.00;63355.56;5069471;28;20113;-76
2022/04/21 00:10:44;;;;;;;12.02;8.23;;;;;;;-141.50;100.00;63355.56;5067855;28;20052;-76
2022/04/21 00:13:11;;;;;;;14.40;8.68;;;;;;;-141.50;100.00;63355.56;5067968;28;20059;-76
2022/04/21 00:15:37;;;;;;;16.38;10.23;;;;;;;-141.50;100.00;63355.56;5072486;28;20083;-75
2022/04/21 00:18:04;;;;;;;15.35;9.93;;;;;;;-141.50;100.00;63355.56;5069399;28;20048;-76
2022/04/21 00:20:31;;;;;;;14.07;8.82;;;;;;;-141.50;100.00;63355.56;5069327;28;20056;-75
2022/04/21 00:25:43;;;;;;;13.33;9.87;;;;;;;-141.50;100.00;63355.56;5069194;28;20128;-77
2022/04/21 00:28:12;;;;;;;13.25;8.82;;;;;;;-141.50;100.00;63355.56;5069079;28;20286;-76
2022/04/21 00:30:39;;;;;;;13.95;9.13;;;;;;;-141.50;100.00;63355.56;5070169;28;20110;-75
2022/04/21 00:33:05;;;;;;;13.75;9.32;;;;;;;-141.50;100.00;63355.56;5068248;28;20068;-75
2022/04/21 00:35:32;;;;;;;17.33;9.68;;;;;;;-141.50;100.00;63355.56;5067411;28;20152;-76
2022/04/21 00:37:59;;;;;;;13.75;9.07;;;;;;;-141.50;100.00;63355.56;5068808;28;20072;-75
2022/04/21 00:40:29;;;;;;;15.88;9.93;;;;;;;-141.50;100.00;63355.56;5068547;28;20131;-76
2022/04/21 00:42:57;;;;;;;15.13;9.68;;;;;;;-141.50;100.00;63355.56;5068309;28;20121;-76
2022/04/21 00:45:25;;;;;;;15.02;9.65;;;;;;;-141.50;100.00;63355.56;5066824;28;20048;-75
2022/04/21 00:47:53;;;;;;;14.40;9.70;;;;;;;-141.50;100.00;63355.56;5072070;28;20096;-76
2022/04/21 00:50:23;;;;;;;14.32;9.05;;;;;;;-141.50;100.00;63355.56;5089023;28;20117;-76
2022/04/21 00:52:52;;;;;;;17.70;10.43;;;;;;;-141.50;100.00;63355.56;5088802;28;20109;-76
2022/04/21 00:55:21;;;;;;;14.25;9.70;;;;;;;-141.50;100.00;63355.56;5087648;28;20044;-76
2022/04/21 00:57:51;;;;;;;13.10;9.32;;;;;;;-141.50;100.00;63355.56;5089379;28;20040;-74
2022/04/21 01:00:20;;;;;;;14.73;10.15;;;;;;;-141.50;100.00;63355.56;5089520;28;20161;-77
2022/04/21 01:02:46;;;;;;;18.85;10.88;;;;;;;-141.50;100.00;63355.56;5088930;28;20508;-76
2022/04/21 01:05:20;;;;;;;17.58;11.90;;;;;;;-141.50;100.00;63355.56;5088791;28;20358;-76
2022/04/21 01:07:47;;;;;;;15.40;10.75;;;;;;;-141.50;100.00;63355.56;5089853;28;20075;-73
2022/04/21 01:10:13;;;;;;;18.42;11.55;;;;;;;-141.50;100.00;63355.56;5089124;28;20098;-77
2022/04/21 01:12:43;;;;;;;15.50;10.80;;;;;;;-141.50;100.00;63355.56;5087396;28;20048;-75
2022/04/21 01:15:12;;;;;;;17.98;11.63;;;;;;;-141.50;100.00;63355.56;5090361;28;20587;-76
2022/04/21 01:17:39;;;;;;;14.65;10.15;;;;;;;-141.50;100.00;63355.56;5092843;28;20075;-75
2022/04/21 01:20:11;;;;;;;15.75;10.70;;;;;;;-141.50;100.00;63355.56;5093945;28;20086;-76
2022/04/21 01:22:37;;;;;;;15.30;10.38;;;;;;;-141.50;100.00;63355.56;5093083;28;20086;-77
2022/04/21 01:25:05;;;;;;;18.50;10.90;;;;;;;-141.50;100.00;63355.56;5092922;28;20398;-76
2022/04/21 01:27:33;;;;;;;17.63;10.57;;;;;;;-141.50;100.00;63355.56;5092849;28;20386;-76
2022/04/21 01:30:02;;;;;;;13.90;9.93;;;;;;;-141.50;100.00;63355.56;5092854;28;20047;-76
2022/04/21 01:32:29;;;;;;;16.15;10.45;;;;;;;-141.50;100.00;63355.56;5106788;28;20079;-75
2022/04/21 01:34:55;;;;;;;15.52;10.68;;;;;;;-141.50;100.00;63355.56;5090098;28;20083;-76
2022/04/21 01:42:53;;;;;;;13.70;9.73;;;;;;;-141.50;100.00;63355.56;5094991;28;20055;-76
2022/04/21 01:45:19;;;;;;;18.08;10.18;;;;;;;-141.50;100.00;63355.56;5094881;28;20113;-75
2022/04/21 01:47:48;;;;;;;13.73;10.18;;;;;;;-141.50;100.00;63355.56;5093085;28;20048;-75
2022/04/21 01:50:15;;;;;;;15.18;10.90;;;;;;;-141.50;100.00;63355.56;5092440;28;20575;-76
2022/04/21 01:52:41;;;;;;;14.65;10.73;;;;;;;-141.50;100.00;63355.56;5093244;28;20067;-74
2022/04/21 01:55:08;;;;;;;19.38;11.18;;;;;;;-141.50;100.00;63355.56;5093365;28;20076;-75
2022/04/21 01:57:35;;;;;;;27.17;13.20;;;;;;;-141.50;100.00;63355.56;5088908;28;20056;-75
2022/04/21 02:00:02;;;;;;;21.35;12.20;;;;;;;-141.50;100.00;63355.56;5074225;28;20053;-75
2022/04/21 02:02:29;;;;;;;18.92;11.25;;;;;;;-141.50;100.00;63355.56;5070985;28;20113;-76
2022/04/21 02:04:57;;;;;;;16.45;10.88;;;;;;;-141.50;100.00;63355.56;5071502;28;20131;-76
2022/04/21 02:07:24;;;;;;;15.43;10.73;;;;;;;-141.50;100.00;63355.56;5070068;28;20052;-76
2022/04/21 02:09:51;;;;;;;15.95;11.07;;;;;;;-141.50;100.00;63355.56;5071078;28;20048;-77
2022/04/21 02:12:18;;;;;;;21.70;11.82;;;;;;;-141.50;100.00;63355.56;5070799;28;20044;-76
2022/04/21 02:14:51;;;;;;;17.23;11.80;;;;;;;-141.50;100.00;63355.56;5071729;28;20432;-75
2022/04/21 02:17:18;;;;;;;17.52;12.48;;;;;;;-141.50;100.00;63355.56;5071764;28;20084;-76
2022/04/21 02:19:46;;;;;;;17.92;11.70;;;;;;;-141.50;100.00;63355.56;5070261;28;20516;-77
2022/04/21 02:22:15;;;;;;;21.75;12.15;;;;;;;-141.50;100.00;63355.56;5073238;28;20109;-75
2022/04/21 02:24:44;;;;;;;17.67;12.77;;;;;;;-141.50;100.00;63355.56;5072213;28;20052;-75
2022/04/21 02:27:11;;;;;;;19.77;13.57;;;;;;;-141.50;100.00;63355.56;5070949;28;20415;-75
2022/04/21 02:29:37;;;;;;;19.33;13.18;;;;;;;-141.50;100.00;63355.56;5070673;28;20392;-75
2022/04/21 02:32:04;;;;;;;24.38;14.00;;;;;;;-141.50;100.00;63355.56;5070031;28;20052;-75
2022/04/21 02:34:34;;;;;;;21.73;13.38;;;;;;;-141.50;100.00;63355.56;5073034;28;20101;-75
2022/04/21 02:37:00;;;;;;;19.48;12.27;;;;;;;-141.50;100.00;63355.56;5071440;28;20048;-76
2022/04/21 02:39:27;;;;;;;18.30;12.60;;;;;;;-141.50;100.00;63355.56;5071846;28;20059;-76
2022/04/21 02:41:54;;;;;;;20.95;13.43;;;;;;;-141.50;100.00;63355.56;5071155;28;20048;-76
2022/04/21 02:44:20;;;;;;;18.17;12.48;;;;;;;-141.50;100.00;63355.56;5071305;28;20083;-76
2022/04/21 02:46:46;;;;;;;23.98;11.95;;;;;;;-141.50;100.00;63355.56;5069415;28;20171;-76
2022/04/21 02:49:15;;;;;;;18.42;13.23;;;;;;;-141.50;100.00;63355.56;5075057;28;20044;-78
2022/04/21 02:51:42;;;;;;;19.90;13.05;;;;;;;-141.50;100.00;63355.56;5079077;28;20278;-76
2022/04/21 02:59:41;;;;;;;18.95;12.68;;;;;;;-141.50;100.00;63355.56;5079245;28;20082;-74
2022/04/21 03:02:07;;;;;;;19.83;13.63;;;;;;;-141.50;100.00;63355.56;5070986;28;20049;-75
2022/04/21 03:04:34;;;;;;;18.63;13.73;;;;;;;-141.50;100.00;63355.56;5070025;28;20068;-75
2022/04/21 03:07:00;;;;;;;22.48;12.98;;;;;;;-141.50;100.00;63355.56;5069269;28;20087;-75
2022/04/21 03:09:27;;;;;;;19.42;13.65;;;;;;;-141.50;100.00;63355.56;5071384;28;20151;-76
2022/04/21 03:11:53;;;;;;;21.52;14.02;;;;;;;-141.50;100.00;63355.56;5071143;28;20057;-75
2022/04/21 03:14:20;;;;;;;20.40;14.02;;;;;;;-141.50;100.00;63355.56;5070955;28;20158;-78
2022/04/21 03:16:46;;;;;;;23.25;15.13;;;;;;;-141.50;100.00;63355.56;5068903;28;20113;-76
2022/04/21 03:19:13;;;;;;;18.73;13.43;;;;;;;-141.50;100.00;63355.56;5071358;28;20317;-75
2022/04/21 03:24:24;;;;;;;20.20;13.90;;;;;;;-141.50;100.00;63355.56;5071174;28;20501;-75
2022/04/21 03:26:52;;;;;;;24.60;14.98;;;;;;;-141.50;100.00;63355.56;5070393;28;20110;-76
2022/04/21 03:29:20;;;;;;;21.67;14.85;;;;;;;-141.50;100.00;63355.56;5070713;28;20125;-77
2022/04/21 03:31:48;;;;;;;23.15;14.75;;;;;;;-141.50;100.00;63355.56;5067886;28;20594;-76
2022/04/21 03:34:17;;;;;;;22.08;15.07;;;;;;;-141.50;100.00;63355.56;5071687;28;20295;-74
2022/04/21 03:36:48;;;;;;;28.05;17.02;;;;;;;-141.50;100.00;63355.56;5069605;28;20060;-75
2022/04/21 03:39:21;;;;;;;22.90;16.27;;;;;;;-141.50;100.00;63355.56;5085473;28;20084;-75
2022/04/21 03:41:53;;;;;;;27.08;16.70;;;;;;;-141.50;100.00;63355.56;5069478;28;20087;-74
2022/04/21 03:44:21;;;;;;;23.75;16.08;;;;;;;-141.50;100.00;63355.56;5068656;28;20139;-75
2022/04/21 03:46:48;;;;;;;26.35;16.92;;;;;;;-141.50;100.00;63355.56;5085016;28;20362;-76
2022/04/21 03:49:14;;;;;;;24.75;16.95;;;;;;;-141.50;100.00;63355.56;5067842;28;20079;-76
2022/04/21 03:51:42;;;;;;;25.15;16.38;;;;;;;-141.50;100.00;63355.56;5069826;28;20076;-74
2022/04/21 03:54:09;;;;;;;25.25;17.23;;;;;;;-141.50;100.00;63355.56;5069758;28;20550;-76
2022/04/21 03:56:35;;;;;;;24.38;16.52;;;;;;;-141.50;100.00;63355.56;5070036;28;20538;-77
2022/04/21 03:59:02;;;;;;;28.33;16.77;;;;;;;-141.50;100.00;63355.56;5068244;28;20493;-76
2022/04/21 04:01:28;;;;;;;21.55;16.23;;;;;;;-141.50;100.00;63355.56;5069066;28;20492;-74
2022/04/21 04:03:55;;;;;;;24.90;17.48;;;;;;;-141.50;100.00;63355.56;5068648;28;20052;-76
2022/04/21 04:11:51;;;;;;;24.45;16.90;;;;;;;-141.50;100.00;63355.56;5068683;28;20143;-74
2022/04/21 04:14:19;;;;;;;22.52;16.92;;;;;;;-141.50;100.00;63355.56;5068959;28;20048;-75
2022/04/21 04:16:46;;;;;;;25.30;17.02;;;;;;;-141.50;100.00;63355.56;5067535;28;20091;-77
2022/04/21 04:19:13;;;;;;;28.20;17.25;;;;;;;-141.50;100.00;63355.56;5068056;28;20127;-74
2022/04/21 04:21:40;;;;;;;25.38;17.70;;;;;;;-141.50;100.00;63355.56;5068597;28;20590;-76
2022/04/21 04:24:06;;;;;;;28.00;17.55;;;;;;;-141.50;100.00;63355.56;5068999;28;20439;-76
2022/04/21 04:26:33;;;;;;;27.52;18.75;;;;;;;-141.50;100.00;63355.56;5068784;28;20127;-76
2022/04/21 04:29:00;;;;;;;32.55;19.35;;;;;;;-141.50;100.00;63355.56;5069017;28;20060;-78
2022/04/21 04:31:26;;;;;;;29.63;19.52;;;;;;;-141.50;100.00;63355.56;5068863;28;20595;-76
2022/04/21 04:33:53;;;;;;;24.67;17.58;;;;;;;-141.50;100.00;63355.56;5070121;28;20064;-76
2022/04/21 04:36:20;;;;;;;34.78;19.70;;;;;;;-141.50;100.00;63355.56;5068795;28;20084;-75
2022/04/21 04:38:48;;;;;;;42.65;22.92;;;;;;;-141.50;100.00;63355.56;5068498;28;20052;-77
2022/04/21 04:44:01;;;;;;;;;;;;;;;-141.50;100.00;63355.56;5069549;28;20072;-77
2022/04/21 04:46:40;;;;;;;29.08;18.17;;;;;;;-141.50;100.00;63355.56;5068841;28;20014;-77
2022/04/21 04:49:09;;;;;;;26.50;16.48;;;;;;;-141.50;100.00;63355.56;5068372;28;20112;-77
2022/04/21 04:51:41;;;;;;;25.60;17.02;;;;;;;-141.50;100.00;63355.56;5065971;28;20048;-74
2022/04/21 04:54:15;;;;;;;28.67;17.02;;;;;;;-141.50;100.00;63355.56;5066868;28;20052;-75
2022/04/21 04:56:44;;;;;;;30.83;17.10;;;;;;;-141.50;100.00;63355.56;5068219;28;20052;-77
2022/04/21 04:59:11;;;;;;;32.08;17.25;;;;;;;-141.50;100.00;63355.56;5085965;28;20113;-76
2022/04/21 05:01:42;;;;;;;29.65;17.27;;;;;;;-141.50;100.00;63355.56;5087919;28;20094;-76
2022/04/21 05:04:10;;;;;;;30.92;17.00;;;;;;;-141.50;100.00;63355.56;5086985;28;20577;-75
2022/04/21 05:06:41;;;;;;;31.88;16.20;;;;;;;-141.50;100.00;63355.56;5087699;28;20480;-76
2022/04/21 05:09:09;;;;;;;33.55;16.52;;;;;;;-141.50;100.00;63355.56;5087568;28;20083;-76
2022/04/21 05:11:40;;;;;;;32.75;16.67;;;;;;;-141.50;100.00;63355.56;5089184;28;20142;-77
2022/04/21 05:14:08;;;;;;;36.25;17.48;;;;;;;-141.50;100.00;63355.56;5089572;28;20578;-76
2022/04/21 05:16:36;;;;;;;39.20;17.42;;;;;;;-141.50;100.00;63355.56;5088157;28;20438;-76
2022/04/21 05:19:04;;;;;;;38.78;17.08;;;;;;;-141.50;100.00;63355.56;5088746;28;20117;-75
2022/04/21 05:21:32;;;;;;;46.90;18.27;;;;;;;-141.50;100.00;63355.56;5087888;28;20515;-76
2022/04/21 05:24:02;;;;;;;43.88;18.38;;;;;;;-141.50;100.00;63355.56;5088445;28;20044;-77
2022/04/21 05:26:29;;;;;;;48.70;17.85;;;;;;;-141.50;100.00;63355.56;5087780;28;20138;-75
2022/04/21 05:28:59;;;;;;;49.33;18.50;;;;;;;-141.50;100.00;63355.56;5088920;28;20228;-76
2022/04/21 05:31:26;;;;;;;53.10;20.52;;;;;;;-141.50;100.00;63355.56;5088923;28;20084;-76
2022/04/21 05:33:54;;;;;;;46.13;19.10;;;;;;;-141.50;100.00;63355.56;5088837;28;20048;-77
2022/04/21 05:36:22;;;;;;;53.85;20.60;;;;;;;-141.50;100.00;63355.56;5088558;28;20044;-77
2022/04/21 05:38:51;;;;;;;51.22;19.58;;;;;;;-141.50;100.00;63355.56;5088380;28;20476;-77
2022/04/21 05:41:19;;;;;;;61.53;20.40;;;;;;;-141.50;100.00;63355.56;5087876;28;20048;-75
2022/04/21 05:43:47;;;;;;;54.60;19.60;;;;;;;-141.50;100.00;63355.56;5087957;28;20052;-77
2022/04/21 05:46:15;;;;;;;60.40;19.25;;;;;;;-141.50;100.00;63355.56;5088347;28;20094;-77
2022/04/21 05:48:42;;;;;;;49.55;17.83;;;;;;;-141.50;100.00;63355.56;5087506;28;20191;-77
2022/04/21 05:51:11;;;;;;;60.90;19.25;;;;;;;-141.50;100.00;63355.56;5086097;28;20105;-76
2022/04/21 05:53:39;;;;;;;61.33;19.92;;;;;;;-141.50;100.00;63355.56;5086597;28;20056;-78
2022/04/21 05:56:08;;;;;;;61.03;19.15;;;;;;;-141.50;100.00;63355.56;5090711;28;20082;-76
2022/04/21 05:58:38;;;;;;;56.72;18.45;;;;;;;-141.50;100.00;63355.56;5078914;28;20056;-76
2022/04/21 06:01:09;;;;;;;65.30;19.98;;;;;;;-141.50;100.00;63355.56;5078929;28;20059;-75
2022/04/21 06:03:41;;;;;;;59.90;19.33;;;;;;;-141.50;100.00;63355.56;5074360;28;20067;-77
2022/04/21 06:06:09;;;;;;;58.15;19.63;;;;;;;-141.50;100.00;63355.56;5071955;28;20074;-76
2022/04/21 06:08:38;;;;;;;58.53;19.42;;;;;;;-141.50;100.00;63355.56;5069469;28;20048;-77
2022/04/21 06:11:05;;;;;;;68.70;19.33;;;;;;;-141.50;100.00;63355.56;5070668;28;20052;-76
2022/04/21 06:13:32;;;;;;;64.82;20.83;;;;;;;-141.50;100.00;63355.56;5071139;28;20076;-77
2022/04/21 06:15:59;;;;;;;60.70;18.67;;;;;;;-141.50;100.00;63355.56;5071287;28;20098;-77
2022/04/21 06:18:26;;;;;;;64.63;18.45;;;;;;;-141.50;100.00;63355.56;5071045;28;20091;-77
2022/04/21 06:20:54;;;;;;;71.25;19.65;;;;;;;-141.50;100.00;63355.56;5071576;28;20053;-77
2022/04/21 06:23:21;;;;;;;81.60;20.48;;;;;;;-141.50;100.00;63355.56;5069517;28;20496;-77
2022/04/21 06:25:47;;;;;;;78.63;20.90;;;;;;;-141.50;100.00;63355.56;5070815;28;20052;-77
2022/04/21 06:28:15;;;;;;;76.60;20.42;;;;;;;-141.50;100.00;63355.56;5071178;28;20462;-75
2022/04/21 06:30:42;;;;;;;69.13;20.83;;;;;;;-141.50;100.00;63355.56;5068977;28;20432;-76
2022/04/21 06:33:17;;;;;;;67.78;20.58;;;;;;;-141.50;100.00;63355.56;5070274;28;20056;-77
2022/04/21 06:35:44;;;;;;;70.57;19.65;;;;;;;-141.50;100.00;63355.56;5070818;28;20078;-75
2022/04/21 06:38:11;;;;;;;70.20;19.08;;;;;;;-141.50;100.00;63355.56;5076969;28;20092;-75
2022/04/21 06:40:38;;;;;;;69.50;18.80;;;;;;;-141.50;100.00;63355.56;5070873;28;20142;-76
2022/04/21 06:48:37;;;;;;;64.40;18.75;;;;;;;-141.50;100.00;63355.56;5071115;28;20060;-76
2022/04/21 06:51:05;;;;;;;62.25;17.98;;;;;;;-141.50;100.00;63355.56;5070875;28;20074;-76
2022/04/21 06:53:34;;;;;;;65.18;21.33;;;;;;;-141.50;100.00;63355.56;5070830;28;20078;-76
2022/04/21 06:56:01;;;;;;;68.45;19.30;;;;;;;-141.50;100.00;63355.56;5071105;28;20141;-75
2022/04/21 06:58:29;;;;;;;67.82;18.83;;;;;;;-141.50;100.00;63355.56;5082006;28;20117;-76
2022/04/21 07:00:55;;;;;;;69.47;20.15;;;;;;;-141.50;100.00;63355.56;5090190;28;20098;-76
2022/04/21 07:03:23;;;;;;;70.97;20.70;;;;;;;-141.50;100.00;63355.56;5090010;28;20083;-75
2022/04/21 07:05:51;;;;;;;66.00;19.65;;;;;;;-141.50;100.00;63355.56;5089200;28;20048;-74
2022/04/21 07:08:18;;;;;;;74.95;20.40;;;;;;;-141.50;100.00;63355.56;5089383;28;20722;-76
2022/04/21 07:10:45;;;;;;;61.78;20.08;;;;;;;-141.50;100.00;63355.56;5089050;28;20052;-78
2022/04/21 07:13:11;;;;;;;69.30;20.10;;;;;;;-141.50;100.00;63355.56;5087499;28;20092;-77
2022/04/21 07:15:40;;;;;;;75.90;19.10;;;;;;;-141.50;100.00;63355.56;5090813;28;20075;-73
2022/04/21 07:18:08;;;;;;;75.50;20.23;;;;;;;-141.50;100.00;63355.56;5090529;28;20040;-74
2022/04/21 07:20:35;;;;;;;75.45;20.30;;;;;;;-141.50;100.00;63355.56;5090597;28;20048;-75
2022/04/21 07:23:02;;;;;;;68.10;19.27;;;;;;;-141.50;100.00;63355.56;5088345;28;20534;-77
2022/04/21 07:25:28;;;;;;;68.45;19.75;;;;;;;-141.50;100.00;63355.56;5089335;28;20048;-75
2022/04/21 07:27:55;;;;;;;70.47;20.40;;;;;;;-141.50;100.00;63355.56;5089790;28;20048;-75
2022/04/21 07:30:21;;;;;;;61.42;19.23;;;;;;;-141.50;100.00;63355.56;5089448;28;20047;-75
2022/04/21 07:32:48;;;;;;;64.85;20.10;;;;;;;-141.50;100.00;63355.56;5090731;28;20135;-76
2022/04/21 07:35:17;;;;;;;67.60;20.33;;;;;;;-141.50;100.00;63355.56;5090707;28;20075;-76
2022/04/21 07:37:44;;;;;;;70.72;22.23;;;;;;;-141.50;100.00;63355.56;5090670;28;20044;-73
2022/04/21 07:40:11;;;;;;;60.42;20.05;;;;;;;-141.50;100.00;63355.56;5090655;28;20130;-76
2022/04/21 07:42:39;;;;;;;69.75;20.73;;;;;;;-141.50;100.00;63355.56;5088901;28;20055;-76
2022/04/21 07:45:06;;;;;;;57.60;18.98;;;;;;;-141.50;100.00;63355.56;5089020;28;20052;-75
2022/04/21 07:47:33;;;;;;;54.55;18.65;;;;;;;-141.50;100.00;63355.56;5089815;28;20108;-76
2022/04/21 07:49:59;;;;;;;55.50;18.15;;;;;;;-141.50;100.00;63355.56;5090215;28;20139;-76
2022/04/21 07:55:18;;;;;;;58.78;18.77;;;;;;;-141.50;100.00;63355.56;5090570;28;20106;-76
2022/04/21 07:57:47;;;;;;;53.05;17.75;;;;;;;-141.50;100.00;63355.56;5065891;28;20056;-76
2022/04/21 08:00:16;;;;;;;61.10;19.77;;;;;;;-141.50;100.00;63355.56;5068037;28;20121;-75
2022/04/21 08:02:44;;;;;;;59.40;19.85;;;;;;;-141.50;100.00;63355.56;5069066;28;20373;-75
2022/04/21 08:05:17;;;;;;;54.45;18.80;;;;;;;-141.50;100.00;63355.56;5070273;28;20453;-75
2022/04/21 08:07:44;;;;;;;58.08;18.95;;;;;;;-141.50;100.00;63355.56;5067905;28;20080;-76
2022/04/21 08:10:18;;;;;;;49.30;17.67;;;;;;;-141.50;100.00;63355.56;5069164;28;20063;-75
2022/04/21 08:12:52;;;;;;;46.28;17.90;;;;;;;-141.50;100.00;63355.56;5067833;28;20101;-74
2022/04/21 08:15:26;;;;;;;54.42;17.75;;;;;;;-141.50;100.00;63355.56;5069506;28;20137;-76
2022/04/21 08:17:58;;;;;;;49.40;18.50;;;;;;;-141.50;100.00;63355.56;5069156;28;20048;-75
2022/04/21 08:20:27;;;;;;;48.90;17.70;;;;;;;-141.50;100.00;63355.56;5069852;28;20048;-74
2022/04/21 08:22:55;;;;;;;38.38;16.25;;;;;;;-141.50;100.00;63355.56;5068497;28;20631;-76
2022/04/21 08:34:18;;;;;;;42.38;15.70;;;;;;;-141.50;100.00;63355.56;5069189;28;20056;-76
2022/04/21 08:36:51;;;;;;;37.00;16.23;;;;;;;-141.50;100.00;63355.56;5068281;28;20136;-74
2022/04/21 08:39:19;;;;;;;40.13;16.42;;;;;;;-141.50;100.00;63355.56;5069253;28;20052;-74
2022/04/21 08:41:52;;;;;;;36.83;14.38;;;;;;;-141.50;100.00;63355.56;5068450;28;20061;-75
2022/04/21 08:44:19;;;;;;;34.22;15.07;;;;;;;-141.50;100.00;63355.56;5067128;28;20521;-76
2022/04/21 08:46:49;;;;;;;30.08;13.73;;;;;;;-141.50;100.00;63355.56;5067971;28;20044;-76
2022/04/21 08:49:18;;;;;;;29.00;14.55;;;;;;;-141.50;100.00;63355.56;5068120;28;20052;-76
2022/04/21 08:51:45;;;;;;;30.95;16.70;;;;;;;-141.50;100.00;63355.56;5068396;28;20055;-77
2022/04/21 08:54:11;;;;;;;28.35;14.45;;;;;;;-141.50;100.00;63355.56;5068243;28;20114;-76
2022/04/21 08:56:38;;;;;;;26.77;13.70;;;;;;;-141.50;100.00;63355.56;5068027;28;20087;-75
2022/04/21 08:59:04;;;;;;;26.05;13.43;;;;;;;-141.50;100.00;63355.56;5086418;28;20491;-76
2022/04/21 09:01:31;;;;;;;26.50;12.75;;;;;;;-141.50;100.00;63355.56;5088183;28;20112;-76
2022/04/21 09:03:57;;;;;;;24.83;12.88;;;;;;;-141.50;100.00;63355.56;5087763;28;20097;-76
2022/04/21 09:06:24;;;;;;;22.38;12.07;;;;;;;-141.50;100.00;63355.56;5088597;28;20044;-74
2022/04/21 09:09:17;;;;;;;18.83;11.60;;;;;;;-141.50;100.00;63355.56;5088077;28;20095;-75
2022/04/21 09:11:45;;;;;;;20.33;12.20;;;;;;;-141.50;100.00;63355.56;5088416;28;20048;-77
2022/04/21 09:14:16;;;;;;;19.67;12.10;;;;;;;-141.50;100.00;63355.56;5087489;28;20055;-76
2022/04/21 09:16:43;;;;;;;26.85;14.63;;;;;;;-141.50;100.00;63355.56;5088771;28;20060;-75
2022/04/21 09:19:10;;;;;;;27.98;16.83;;;;;;;-141.50;100.00;63355.56;5087246;28;20180;-75
2022/04/21 09:21:38;;;;;;;32.92;17.70;;;;;;;-141.50;100.00;63355.56;5086698;28;20048;-75
2022/04/21 09:24:22;;;;;;;18.90;11.30;;;;;;;-141.50;100.00;63355.56;5088432;28;20148;-75
2022/04/21 09:26:49;;;;;;;19.95;10.88;;;;;;;-141.50;100.00;63355.56;5088270;28;20147;-77
2022/04/21 09:29:28;;;;;;;18.73;11.13;;;;;;;-141.50;100.00;63355.56;5088548;28;20297;-77
2022/04/21 09:31:57;;;;;;;20.63;11.63;;;;;;;-141.50;100.00;63355.56;5087634;28;20059;-75
2022/04/21 09:34:32;;;;;;;22.50;11.02;;;;;;;-141.50;100.00;63355.56;5088289;28;20081;-76
2022/04/21 09:37:00;;;;;;;19.77;10.70;;;;;;;-141.50;100.00;63355.56;5091524;28;20048;-76
2022/04/21 09:39:29;;;;;;;19.73;11.32;;;;;;;-141.50;100.00;63355.56;5091317;28;20105;-75
2022/04/21 09:41:56;;;;;;;17.77;10.57;;;;;;;-141.50;100.00;63355.56;5092250;28;20134;-74
2022/04/21 09:47:20;;;;;;;20.83;11.20;;;;;;;-141.50;100.00;63355.56;5091781;28;20121;-77
2022/04/21 09:49:47;;;;;;;24.63;11.93;;;;;;;-141.50;100.00;63355.56;5092351;28;20143;-75
2022/04/21 09:52:26;;;;;;;24.50;11.65;;;;;;;-141.50;100.00;63355.56;5091821;28;20565;-75
2022/04/21 09:54:52;;;;;;;21.63;11.38;;;;;;;-141.50;100.00;63355.56;5091774;28;20140;-76
2022/04/21 09:57:32;;;;;;;21.70;11.63;;;;;;;-141.50;100.00;63355.56;5090457;28;20040;-76
2022/04/21 09:59:59;;;;;;;21.85;12.02;;;;;;;-141.50;100.00;63355.56;5071134;28;20427;-75
2022/04/21 10:02:27;;;;;;;23.13;11.57;;;;;;;-141.50;100.00;63355.56;5074082;28;20158;-72
2022/04/21 10:04:54;;;;;;;21.25;11.10;;;;;;;-141.50;100.00;63355.56;5080348;28;20048;-76
2022/04/21 10:07:22;;;;;;;20.23;11.30;;;;;;;-141.50;100.00;63355.56;5083877;28;20044;-74
2022/04/21 10:09:49;;;;;;;18.25;8.98;;;;;;;-141.50;100.00;63355.56;5081962;28;20074;-75
2022/04/21 10:12:17;;;;;;;14.10;8.95;;;;;;;-141.50;100.00;63355.56;5081831;28;20535;-74
2022/04/21 10:14:44;;;;;;;14.73;9.23;;;;;;;-141.50;100.00;63355.56;5077698;28;20127;-74
2022/04/21 10:17:11;;;;;;;16.98;8.85;;;;;;;-141.50;100.00;63355.56;5073222;28;20052;-76
2022/04/21 10:19:37;;;;;;;14.20;8.77;;;;;;;-141.50;100.00;63355.56;5071653;28;20056;-74
2022/04/21 10:22:10;;;;;;;14.25;8.43;;;;;;;-141.50;100.00;63355.56;5071396;28;20048;-74
2022/04/21 10:24:37;;;;;;;16.02;9.40;;;;;;;-141.50;100.00;63355.56;5071697;28;20045;-74
2022/04/21 10:27:04;;;;;;;18.75;9.60;;;;;;;-141.50;100.00;63355.56;5072503;28;20049;-75
2022/04/21 10:29:31;;;;;;;14.80;8.25;;;;;;;-141.50;100.00;63355.56;5072779;28;20063;-77
2022/04/21 10:32:03;;;;;;;15.80;9.23;;;;;;;-141.50;100.00;63355.56;5071969;28;20141;-77
2022/04/21 10:34:36;;;;;;;12.98;8.60;;;;;;;-141.50;100.00;63355.56;5070604;28;20048;-76
2022/04/21 10:37:20;;;;;;;11.43;7.05;;;;;;;-141.50;100.00;63355.56;5071684;28;20044;-75
2022/04/21 10:40:04;;;;;;;9.23;6.07;;;;;;;-141.50;100.00;63355.56;5070329;28;20113;-73
2022/04/21 10:42:53;;;;;;;8.38;6.00;;;;;;;-141.50;100.00;63355.56;5071703;28;20572;-77
2022/04/21 10:45:31;;;;;;;12.43;8.25;;;;;;;-141.50;100.00;63355.56;5072397;28;20574;-77
2022/04/21 10:48:04;;;;;;;12.57;8.90;;;;;;;-141.50;100.00;63355.56;5072470;28;20040;-77
2022/04/21 10:50:31;;;;;;;9.70;6.40;;;;;;;-141.50;100.00;63355.56;5071978;28;20466;-74
2022/04/21 10:58:34;;;;;;;8.00;4.90;;;;;;;-141.50;100.00;63355.56;5083884;28;20131;-75
2022/04/21 11:01:16;;;;;;;8.75;5.35;;;;;;;-141.50;100.00;63355.56;5090852;28;20055;-75
2022/04/21 11:03:46;;;;;;;9.07;6.20;;;;;;;-141.50;100.00;63355.56;5091064;28;20399;-76
2022/04/21 11:06:14;;;;;;;10.00;6.38;;;;;;;-141.50;100.00;63355.56;5091228;28;20138;-76
2022/04/21 11:08:43;;;;;;;12.43;8.05;;;;;;;-141.50;100.00;63355.56;5089855;28;20135;-76
2022/04/21 11:11:13;;;;;;;9.70;6.15;;;;;;;-141.50;100.00;63355.56;5089448;28;20131;-76
2022/04/21 11:13:50;;;;;;;6.97;5.15;;;;;;;-141.50;100.00;63355.56;5091010;28;20129;-76
2022/04/21 11:16:41;;;;;;;6.60;4.90;;;;;;;-141.50;100.00;63355.56;5089410;28;20120;-77
2022/04/21 11:19:28;;;;;;;7.20;4.80;;;;;;;-141.50;100.00;63355.56;5091437;28;20056;-77
2022/04/21 11:21:59;;;;;;;6.85;4.50;;;;;;;-141.50;100.00;63355.56;5089290;28;20121;-76
2022/04/21 11:24:26;;;;;;;7.07;4.90;;;;;;;-141.50;100.00;63355.56;5090011;28;20294;-75
2022/04/21 11:26:58;;;;;;;6.57;4.63;;;;;;;-141.50;100.00;63355.56;5091281;28;20059;-75
2022/04/21 11:29:26;;;;;;;6.05;3.83;;;;;;;-141.50;100.00;63355.56;5090878;28;20099;-76
2022/04/21 11:31:57;;;;;;;6.20;4.07;;;;;;;-141.50;100.00;63355.56;5090442;28;20139;-75
2022/04/21 11:34:27;;;;;;;8.32;4.18;;;;;;;-141.50;100.00;63355.56;5090809;28;20051;-74
2022/04/21 11:36:56;;;;;;;6.40;4.28;;;;;;;-141.50;100.00;63355.56;5090158;28;20150;-75
2022/04/21 11:39:23;;;;;;;7.25;4.43;;;;;;;-141.50;100.00;63355.56;5091026;28;20105;-75
2022/04/21 11:41:52;;;;;;;8.05;4.97;;;;;;;-141.50;100.00;63355.56;5091159;28;20095;-76
2022/04/21 11:44:26;;;;;;;7.60;5.00;;;;;;;-141.50;100.00;63355.56;5090727;28;20067;-75
2022/04/21 11:46:53;;;;;;;7.18;5.28;;;;;;;-141.50;100.00;63355.56;5088591;28;20449;-76
2022/04/21 11:49:20;;;;;;;7.40;4.50;;;;;;;-141.50;100.00;63355.56;5090015;28;20051;-77
2022/04/21 11:51:52;;;;;;;8.07;4.90;;;;;;;-141.50;100.00;63355.56;5089630;28;20095;-74
2022/04/21 11:54:19;;;;;;;6.32;4.28;;;;;;;-141.50;100.00;63355.56;5088880;28;20052;-75